Rechercher aéroport 
image banner adimage banner adimage banner ad
image banner ad

CL89 - Mga Chatsworth

Situé à Chatsworth, United States

ICAO - CL89, IATA -

Données fournies par Airmate  

Information générale

Coordonnées: N34°14'20" W118°34'10"
Élévation : 859 feet MSL.
Variation magnétique : 14° East
Voir autres Aéroports à California

Données opérationnelles

Special qualification required
Heure actuelle UTC:
Heure actuelle locale:
Météo à : KVNY - Van Nuys ( 8 km )
METAR: KVNY 291551Z 00000KT 10SM CLR 26/14 A2994 RMK AO2 SLP127 T02560144
TAF: KVNY 291146Z 2912/3012 VRB03KT P6SM SKC FM291900 14008KT P6SM SKC FM300000 29008KT P6SM SKC FM300400 VRB03KT P6SM SKC
Voir NOTAMs / SUP AIP / TFR affectant cet aéroport [VIEW]
Fréquences de communication: [VIEW]

Pistes:

Coordonnées de l'aéroport

Adresse: Chatsworth United States

Vue satellite de CL89